X  CloseMetar Aviation Weather Data     EKSB Sønderborg

Temperature

14°C Temperature

13°C Dewpoint

94% Humidity



Wind

 8 KM/H

 5 MPH

 2 M/S

 4 KTS



100°
Due East
Current Conditions

Mostly Cloudy Mostly Cloudy
Pressure 1007.92 (hPa) - 29.76 (in)
Visibility 0 (mi) - 0 (km)
Airport
Airport-code EKSB

Location Sønderborg 40 (km)

Metar:
EKSB 192250Z AUTO 10004KT 050V150 8000NDV BKN005/// 14/13 Q1008

Time: 20-05-2019 00:50